This is the latest recevied weather packets stored in our database for station/object W7JFO-3. If no packets are shown the sender has not sent any weather packets the latest 10 day(s).
| Time | Temp. | Humidity | Pressure | Rain* | Wind** | Luminosity | Snow |
|---|---|---|---|---|---|---|---|
| 1777948305 | 10.56° C | 45% | 1009.3 hPa | 0 mm | - | 14 W/m² | - |
| 1777947405 | 10.56° C | 45% | 1009 hPa | 0 mm | - | 25 W/m² | - |
| 1777946505 | 11.11° C | 44% | 1009.3 hPa | 0 mm | - | 30 W/m² | - |
| 1777945605 | 11.67° C | 43% | 1009 hPa | 0 mm | - | 46 W/m² | - |
| 1777944705 | 12.78° C | 42% | 1008.8 hPa | 0 mm | - | 69 W/m² | - |
| 1777943805 | 12.78° C | 42% | 1009.1 hPa | 0 mm | - | 132 W/m² | - |
| 1777942905 | 12.78° C | 43% | 1008.9 hPa | 0 mm | - | 54 W/m² | - |
| 1777942005 | 13.33° C | 42% | 1008.8 hPa | 0 mm | - | 76 W/m² | - |
| 1777941105 | 13.89° C | 41% | 1009.1 hPa | 0 mm | - | 415 W/m² | - |
| 1777940205 | 14.44° C | 40% | 1009 hPa | 0 mm | - | 417 W/m² | - |
| 1777939305 | 14.44° C | 41% | 1008.8 hPa | 0 mm | - | 192 W/m² | - |
| 1777938405 | 14.44° C | 40% | 1008.7 hPa | 0 mm | - | 227 W/m² | - |
| 1777937505 | 15° C | 39% | 1008.9 hPa | 0 mm | - | 250 W/m² | - |
| 1777936605 | 15.56° C | 40% | 1008.6 hPa | 0 mm | - | 366 W/m² | - |
| 1777935705 | 15° C | 41% | 1008.4 hPa | 0 mm | - | 705 W/m² | - |
| 1777934805 | 14.44° C | 41% | 1009 hPa | 0 mm | - | 577 W/m² | - |
| 1777933905 | 13.89° C | 42% | 1009 hPa | 0 mm | - | 541 W/m² | - |
| 1777933005 | 15° C | 40% | 1008.7 hPa | 0 mm | - | 239 W/m² | - |
| 1777932105 | 14.44° C | 41% | 1008.7 hPa | 0 mm | - | 318 W/m² | - |
| 1777931205 | 14.44° C | 42% | 1009.1 hPa | 0 mm | - | 269 W/m² | - |
| 1777930305 | 15° C | 39% | 1008.8 hPa | 0 mm | - | 253 W/m² | - |
| 1777929405 | 15° C | 41% | 1008.8 hPa | 0 mm | - | 847 W/m² | - |
| 1777928505 | 14.44° C | 39% | 1009 hPa | 0 mm | - | 376 W/m² | - |
| 1777927605 | 15° C | 38% | 1008.8 hPa | 0 mm | - | 462 W/m² | - |
| 1777926705 | 14.44° C | 40% | 1008.6 hPa | 0 mm | - | 374 W/m² | - |
* Rain latest hour (hover to see other rain measurements)
** Current wind speed in m/s (hover to see current wind gust speed)